Terminal Aerodrome Forecast
Issued by NWS

Home | Current Version | Previous Version | Text Only | Print | Product List | Glossary On
Versions: 1 2 3 4 5 6 7 8 9 10 11 12 13 14 15 16 17 18 19 20 21 22 23 24 25 26
000
FTUS43 KABR 291509 AAA
TAFPIR
TAF AMD
KPIR 291509Z 2915/3012 36025G32KT 4SM RA BR BKN007
     FM291700 36021G28KT P6SM OVC015
     FM292200 36014G20KT P6SM OVC050
     FM300000 04005KT P6SM OVC250=

USA.gov is the U.S. government's official web portal to all federal, state and local government web resources and services.